Blue Wave — 5BGC3 — position and weather

sailwx.info

Track history (hours):
 
Tides and Currents Weather Stations Pressure Air Temp Water Temp Dewpoint Dewpoint Depression Visibility Wind Speed Wind Dir Waves Ship Positions

Blue Wave

Last reported at 2017-Sep-24 06:30 UTC. Time now 2017-Sep-24 06:58 UTC.
Position N 52°25' E 004°49'.

Length 229 m; draft 13.8 m.

Type: Cargo ship. MMSI: 209722000.

Date/timePositionNaut miles runAvg speedWind from/ knotsBaromVisibWave heightAir tempDewpointWater temp
2017-Sep-24 06:30N 52°25' E 004°49'0 0.0
2017-Sep-24 06:00N 52°25' E 004°49'0 0.0
2017-Sep-24 05:30N 52°25' E 004°49'0 0.0
2017-Sep-24 05:00N 52°25' E 004°49'0 0.0
2017-Sep-24 04:27N 52°25' E 004°49'0 0.0
2017-Sep-24 04:00N 52°25' E 004°49'0 0.0
2017-Sep-24 03:30N 52°25' E 004°49'0 0.0
2017-Sep-24 03:00N 52°25' E 004°49'0 0.0
2017-Sep-24 02:30N 52°25' E 004°49'0 0.0
2017-Sep-24 02:00N 52°25' E 004°49'0 0.0
2017-Sep-24 01:30N 52°25' E 004°49'0 0.0
2017-Sep-24 01:00N 52°25' E 004°49'0 0.0
2017-Sep-24 00:30N 52°25' E 004°49'0 0.0
2017-Sep-24 00:00N 52°25' E 004°49'0 0.0
2017-Sep-23 23:30N 52°25' E 004°49'0 0.0
2017-Sep-23 22:57N 52°25' E 004°49'0 0.0
2017-Sep-23 22:27N 52°25' E 004°49'0 0.0
2017-Sep-23 22:00N 52°25' E 004°49'0 0.0
2017-Sep-23 21:30N 52°25' E 004°49'0 0.0
2017-Sep-23 21:00N 52°25' E 004°49'0 0.0
2017-Sep-23 20:27N 52°25' E 004°49'0 0.0
2017-Sep-23 20:00N 52°25' E 004°49'0 0.0
2017-Sep-22 02:00N 52°25' E 004°49'0 0.0
2017-Sep-22 01:30N 52°25' E 004°49'0 0.0
2017-Sep-22 01:00N 52°25' E 004°49'0 0.0
2017-Sep-22 00:30N 52°25' E 004°49'0 0.0
2017-Sep-22 00:00N 52°25' E 004°49'0 0.0
2017-Sep-21 23:30N 52°25' E 004°49'0 0.0
2017-Sep-21 23:00N 52°25' E 004°49'0 0.0
2017-Sep-21 22:30N 52°25' E 004°49'0 0.0
2017-Sep-21 22:00N 52°25' E 004°49'0 0.0
2017-Sep-21 21:30N 52°25' E 004°49'0 0.0
2017-Sep-21 21:00N 52°25' E 004°49'0 0.0
2017-Sep-21 20:30N 52°25' E 004°49'0 0.0
2017-Sep-21 20:00N 52°25' E 004°49'0 0.0
2017-Sep-21 19:30N 52°25' E 004°49'0 0.0
2017-Sep-21 19:00N 52°25' E 004°49'0 0.0
2017-Sep-21 18:30N 52°25' E 004°49'0 0.0
2017-Sep-21 18:00N 52°25' E 004°49'0 0.0
2017-Sep-21 17:30N 52°25' E 004°49'0 0.0
2017-Sep-21 17:00N 52°25' E 004°49'0 0.1
2017-Sep-21 16:31N 52°25' E 004°49'2 4.1
2017-Sep-21 16:01N 52°26' E 004°46'3 6.5
2017-Sep-21 15:30N 52°27' E 004°41'3 5.6
2017-Sep-21 15:00N 52°28' E 004°37'0 0.4
2017-Sep-21 14:30N 52°28' E 004°36'1 1.3
2017-Sep-21 14:01N 52°28' E 004°35'2 4.6
2017-Sep-21 13:31N 52°28' E 004°32'3 7.0
2017-Sep-21 13:00N 52°29' E 004°26'4 8.3
2017-Sep-21 12:30N 52°29' E 004°19'510.2
2017-Sep-21 12:00N 52°29' E 004°11'3 5.9
2017-Sep-21 11:30N 52°27' E 004°07'0 0.2
2017-Sep-21 10:56N 52°27' E 004°06'0 0.0
2017-Sep-21 10:29N 52°27' E 004°06'0 0.0
2017-Sep-21 09:56N 52°27' E 004°06'0 0.0
2017-Sep-21 09:26N 52°27' E 004°06'0 0.1
2017-Sep-21 08:59N 52°27' E 004°06'0 0.1
2017-Sep-21 08:26N 52°27' E 004°06'0 0.3
2017-Sep-21 07:59N 52°27' E 004°07'0 0.3
2017-Sep-21 07:29N 52°28' E 004°07'0 0.1
2017-Sep-21 06:26N 52°28' E 004°07'0 0.0
2017-Sep-21 05:59N 52°28' E 004°07'0 0.0
2017-Sep-21 05:29N 52°28' E 004°07'0 0.0
2017-Sep-21 04:44N 52°28' E 004°07'0 0.0
2017-Sep-21 04:08N 52°28' E 004°07'0 0.0
2017-Sep-21 03:47N 52°28' E 004°07'0 0.0
2017-Sep-21 03:23N 52°28' E 004°07'0 0.1
2017-Sep-21 02:53N 52°28' E 004°07'0 0.0
2017-Sep-21 02:23N 52°28' E 004°07'0 0.1
2017-Sep-21 01:56N 52°28' E 004°07'0 0.0
2017-Sep-21 01:29N 52°28' E 004°07'0 0.1
2017-Sep-21 00:59N 52°28' E 004°07'0 0.3
2017-Sep-21 00:23N 52°27' E 004°07'0 0.1
2017-Sep-20 23:56N 52°27' E 004°06'0 0.1
2017-Sep-20 23:23N 52°27' E 004°06'0 0.0
2017-Sep-20 22:59N 52°27' E 004°06'0 0.1
2017-Sep-20 22:29N 52°27' E 004°06'0 0.0
2017-Sep-20 21:53N 52°27' E 004°06'0 0.0
2017-Sep-20 21:26N 52°27' E 004°06'0 0.0
2017-Sep-20 20:59N 52°27' E 004°06'0 0.0
2017-Sep-20 20:29N 52°27' E 004°06'0 0.1
2017-Sep-20 19:56N 52°27' E 004°06'0 0.2
2017-Sep-20 19:29N 52°27' E 004°07'0 0.3
2017-Sep-20 18:56N 52°27' E 004°07'0 0.2
2017-Sep-20 18:29N 52°28' E 004°07'0 0.1
2017-Sep-20 17:59N 52°28' E 004°07'0 0.1
2017-Sep-20 17:29N 52°28' E 004°07'0 0.0
2017-Sep-20 16:56N 52°28' E 004°07'0 0.0
2017-Sep-20 16:29N 52°28' E 004°07'0 0.0
2017-Sep-20 15:59N 52°28' E 004°07'0 0.1
2017-Sep-20 15:29N 52°28' E 004°07'0 0.0
2017-Sep-20 14:56N 52°28' E 004°07'0 0.1
2017-Sep-20 13:53N 52°28' E 004°07'0 0.1
2017-Sep-20 13:29N 52°28' E 004°07'0 0.3
2017-Sep-20 12:59N 52°27' E 004°07'0 0.3
2017-Sep-20 12:29N 52°27' E 004°06'0 0.1
2017-Sep-20 11:59N 52°27' E 004°06'0 0.0
2017-Sep-20 11:29N 52°27' E 004°06'0 0.0
2017-Sep-20 10:53N 52°27' E 004°06'0 0.0
2017-Sep-20 10:29N 52°27' E 004°06'0 0.0
2017-Sep-20 09:59N 52°27' E 004°06'0 0.0
2017-Sep-20 09:23N 52°27' E 004°06'0 0.0
2017-Sep-20 08:56N 52°27' E 004°06'0 0.0
2017-Sep-20 08:29N 52°27' E 004°06'0 0.0
2017-Sep-20 07:59N 52°27' E 004°06'0 0.0
2017-Sep-20 07:29N 52°27' E 004°06'0 0.1
2017-Sep-20 06:59N 52°27' E 004°06'0 0.2
2017-Sep-20 06:29N 52°27' E 004°07'0 0.2
2017-Sep-20 05:56N 52°27' E 004°07'0 0.2
2017-Sep-20 05:20N 52°28' E 004°07'0 0.0
2017-Sep-20 04:38N 52°28' E 004°07'0 0.0
2017-Sep-20 04:17N 52°28' E 004°07'0 0.0
2017-Sep-20 03:59N 52°28' E 004°07'0 0.0
2017-Sep-20 03:26N 52°28' E 004°07'0 0.0
2017-Sep-20 02:47N 52°28' E 004°06'0 0.1
2017-Sep-20 02:29N 52°28' E 004°07'0 0.0
2017-Sep-20 01:59N 52°28' E 004°07'0 0.0
2017-Sep-20 01:29N 52°28' E 004°07'0 0.2
2017-Sep-20 00:59N 52°27' E 004°07'0 0.2
2017-Sep-20 00:29N 52°27' E 004°07'0 0.3
2017-Sep-19 23:59N 52°27' E 004°06'0 0.1
2017-Sep-19 23:26N 52°27' E 004°06'0 0.0
2017-Sep-19 22:59N 52°27' E 004°06'0 0.0
2017-Sep-19 22:29N 52°27' E 004°06'0 0.0
2017-Sep-19 21:59N 52°27' E 004°06'0 0.0
2017-Sep-19 21:29N 52°27' E 004°06'0 0.0
2017-Sep-19 20:59N 52°27' E 004°06'0 0.1
2017-Sep-19 20:29N 52°27' E 004°06'0 0.4
2017-Sep-19 20:01N 52°27' E 004°07'1 2.4
2017-Sep-19 19:31N 52°28' E 004°09'4 7.1
2017-Sep-19 19:01N 52°31' E 004°08'611.6
2017-Sep-19 18:31N 52°37' E 004°04'611.5
2017-Sep-19 18:00N 52°42' E 004°00'612.0
2017-Sep-19 17:31N 52°48' E 003°59'611.2
2017-Sep-19 17:00N 52°54' E 003°59'710.6
2017-Sep-19 16:19N 52°60' E 004°05'411.0
2017-Sep-19 15:58N 53°03' E 004°10'35311.3
2017-Sep-18 08:41N 57°46' E 010°21'311.3
2017-Sep-18 08:27N 57°47' E 010°26'611.5
2017-Sep-18 07:58N 57°47' E 010°36'510.8
2017-Sep-18 07:30N 57°48' E 010°46'5 8.2
2017-Sep-18 06:55N 57°44' E 010°53'510.7
2017-Sep-18 06:29N 57°41' E 010°59'611.9
2017-Sep-18 06:00N 57°37' E 011°07'611.4
2017-Sep-18 05:30N 57°34' E 011°15'611.3
2017-Sep-18 05:00N 57°30' E 011°22'611.0
2017-Sep-18 04:30N 57°25' E 011°28'611.7
2017-Sep-18 04:01N 57°20' E 011°32'611.4
2017-Sep-18 03:30N 57°14' E 011°36'611.5
2017-Sep-18 02:57N 57°08' E 011°39'1511.7
2017-Sep-18 01:42N 56°54' E 011°48'1011.3
2017-Sep-18 00:49N 56°45' E 011°53'8810.5
2017-Sep-17 16:24N 55°21' E 011°02'512.1
2017-Sep-17 16:00N 55°16' E 011°04'510.2
2017-Sep-17 15:30N 55°11' E 011°04'611.2
2017-Sep-17 15:01N 55°06' E 010°59'611.5
2017-Sep-17 14:31N 55°01' E 010°59'611.1
2017-Sep-17 14:01N 54°56' E 010°53'611.5
2017-Sep-17 13:31N 54°51' E 010°50'611.2
2017-Sep-17 13:01N 54°45' E 010°48'5 9.9
2017-Sep-17 12:30N 54°40' E 010°48'510.3
2017-Sep-17 12:01N 54°38' E 010°55'611.6
2017-Sep-17 11:31N 54°36' E 011°05'611.9
2017-Sep-17 11:00N 54°35' E 011°15'612.7
2017-Sep-17 10:31N 54°32' E 011°25'612.0
2017-Sep-17 10:01N 54°29' E 011°34'611.6
2017-Sep-17 09:31N 54°27' E 011°43'611.7
2017-Sep-17 09:00N 54°26' E 011°54'611.7
2017-Sep-17 08:31N 54°26' E 012°03'8 9.9
2017-Sep-17 07:43N 54°31' E 012°14'211.6
2017-Sep-17 07:31N 54°34' E 012°16'611.1
2017-Sep-17 07:01N 54°38' E 012°21'2910.8
2017-Sep-17 04:20N 54°52' E 013°05'411.6
2017-Sep-17 04:00N 54°53' E 013°11'1911.7
2017-Sep-17 02:24N 54°60' E 013°42'512.0
2017-Sep-17 01:57N 55°01' E 013°51'511.8
2017-Sep-17 01:30N 55°03' E 013°60'611.1
2017-Sep-17 00:59N 55°06' E 014°08'611.7
2017-Sep-17 00:31N 55°11' E 014°13'611.8
2017-Sep-17 00:01N 55°15' E 014°20'611.9
2017-Sep-16 23:31N 55°20' E 014°27'611.7
2017-Sep-16 23:00N 55°25' E 014°33'611.6
2017-Sep-16 22:31N 55°28' E 014°41'611.9
2017-Sep-16 22:00N 55°31' E 014°51'612.0
2017-Sep-16 21:31N 55°34' E 014°60'612.0
2017-Sep-16 21:00N 55°36' E 015°09'611.8
2017-Sep-16 20:31N 55°39' E 015°19'611.9
2017-Sep-16 20:01N 55°41' E 015°29'612.0
2017-Sep-16 19:31N 55°42' E 015°39'611.9
2017-Sep-16 19:01N 55°43' E 015°50'611.7
2017-Sep-16 18:30N 55°44' E 015°60'611.9
2017-Sep-16 18:01N 55°46' E 016°10'611.8
2017-Sep-16 17:30N 55°48' E 016°20'611.8
2017-Sep-16 17:01N 55°49' E 016°30'611.7
2017-Sep-16 16:29N 55°50' E 016°41'30110.6
2017-Sep-15 12:03N 59°34' E 022°58'211.4
2017-Sep-15 11:53N 59°35' E 023°01'411.5
2017-Sep-15 11:30N 59°36' E 023°09'611.2
2017-Sep-15 11:00N 59°38' E 023°20'611.1
2017-Sep-15 10:31N 59°39' E 023°31'611.5
2017-Sep-15 10:01N 59°41' E 023°42'611.6
2017-Sep-15 09:31N 59°42' E 023°53'611.8
2017-Sep-15 09:01N 59°44' E 024°04'811.8
2017-Sep-15 08:23N 59°46' E 024°18'411.6
2017-Sep-15 08:00N 59°47' E 024°26'611.3
2017-Sep-15 07:30N 59°49' E 024°37'611.4
2017-Sep-15 07:00N 59°50' E 024°48'4311.6
2017-Sep-15 03:18N 59°59' E 026°12'311.0
2017-Sep-15 03:00N 59°59' E 026°18'511.0
2017-Sep-15 02:30N 60°01' E 026°29'510.3
2017-Sep-15 02:01N 60°01' E 026°39'510.5
2017-Sep-15 01:30N 60°00' E 026°50'510.4
2017-Sep-15 01:00N 59°59' E 026°60'5 9.8
2017-Sep-15 00:30N 60°01' E 027°09'510.5
2017-Sep-15 00:00N 60°04' E 027°18'510.7
2017-Sep-14 23:30N 60°07' E 027°27'510.7
2017-Sep-14 23:00N 60°09' E 027°36'510.5
2017-Sep-14 22:30N 60°12' E 027°45'510.5
2017-Sep-14 22:00N 60°11' E 027°56'510.9
2017-Sep-14 21:30N 60°09' E 028°06'510.6
2017-Sep-14 21:00N 60°08' E 028°16'611.1
2017-Sep-14 20:30N 60°05' E 028°26'510.1
2017-Sep-14 20:00N 60°03' E 028°35'4 7.8
2017-Sep-14 19:31N 59°59' E 028°36'4 8.0
2017-Sep-14 19:01N 59°55' E 028°34'4 7.9
2017-Sep-14 18:31N 59°52' E 028°29'510.6
2017-Sep-14 18:01N 59°47' E 028°25'4 8.4
2017-Sep-14 17:31N 59°43' E 028°25'2 3.3
2017-Sep-14 17:01N 59°41' E 028°25'0 0.5
2017-Sep-14 16:31N 59°41' E 028°25'0 0.0
2017-Sep-14 15:59N 59°41' E 028°25'0 0.0
2017-Sep-14 15:29N 59°41' E 028°25'0 0.0
2017-Sep-14 14:59N 59°41' E 028°25'0 0.0
2017-Sep-14 14:29N 59°41' E 028°25'0 0.0
2017-Sep-14 13:59N 59°41' E 028°25'0 0.0
2017-Sep-14 13:29N 59°41' E 028°25'0 0.0
2017-Sep-14 12:59N 59°41' E 028°25'0 0.0
2017-Sep-14 12:29N 59°41' E 028°25'0 0.0
2017-Sep-14 11:59N 59°41' E 028°25'0 0.0
2017-Sep-14 11:29N 59°41' E 028°25'0 0.0
2017-Sep-14 10:50N 59°41' E 028°25'0 0.0
2017-Sep-14 10:29N 59°41' E 028°25'0 0.0
2017-Sep-14 09:50N 59°41' E 028°25'0 0.0
2017-Sep-14 09:23N 59°41' E 028°25'0 0.0
2017-Sep-14 08:53N 59°41' E 028°25'0 0.0
2017-Sep-14 08:23N 59°41' E 028°25'0 0.0
2017-Sep-14 07:47N 59°41' E 028°25'0 0.0
2017-Sep-14 07:23N 59°41' E 028°25'0 0.0
2017-Sep-14 06:53N 59°41' E 028°25'  
Track history (hours):
 
Tides and Currents Weather Stations Pressure Air Temp Water Temp Dewpoint Dewpoint Depression Visibility Wind Speed Wind Dir Waves Ship Positions

Blue Wave

Last reported at 2017-Sep-24 06:30 UTC. Time now 2017-Sep-24 06:58 UTC.
Position N 52°25' E 004°49'.

Length 229 m; draft 13.8 m.

Type: Cargo ship. MMSI: 209722000.

Date/timePositionNaut miles runAvg speedWind from/ knotsBaromVisibWave heightAir tempDewpointWater temp
2017-Sep-24 06:30N 52°25' E 004°49'0 0.0
2017-Sep-24 06:00N 52°25' E 004°49'0 0.0
2017-Sep-24 05:30N 52°25' E 004°49'0 0.0
2017-Sep-24 05:00N 52°25' E 004°49'0 0.0
2017-Sep-24 04:27N 52°25' E 004°49'0 0.0
2017-Sep-24 04:00N 52°25' E 004°49'0 0.0
2017-Sep-24 03:30N 52°25' E 004°49'0 0.0
2017-Sep-24 03:00N 52°25' E 004°49'0 0.0
2017-Sep-24 02:30N 52°25' E 004°49'0 0.0
2017-Sep-24 02:00N 52°25' E 004°49'0 0.0
2017-Sep-24 01:30N 52°25' E 004°49'0 0.0
2017-Sep-24 01:00N 52°25' E 004°49'0 0.0
2017-Sep-24 00:30N 52°25' E 004°49'0 0.0
2017-Sep-24 00:00N 52°25' E 004°49'0 0.0
2017-Sep-23 23:30N 52°25' E 004°49'0 0.0
2017-Sep-23 22:57N 52°25' E 004°49'0 0.0
2017-Sep-23 22:27N 52°25' E 004°49'0 0.0
2017-Sep-23 22:00N 52°25' E 004°49'0 0.0
2017-Sep-23 21:30N 52°25' E 004°49'0 0.0
2017-Sep-23 21:00N 52°25' E 004°49'0 0.0
2017-Sep-23 20:27N 52°25' E 004°49'0 0.0
2017-Sep-23 20:00N 52°25' E 004°49'0 0.0
2017-Sep-22 02:00N 52°25' E 004°49'0 0.0
2017-Sep-22 01:30N 52°25' E 004°49'0 0.0
2017-Sep-22 01:00N 52°25' E 004°49'0 0.0
2017-Sep-22 00:30N 52°25' E 004°49'0 0.0
2017-Sep-22 00:00N 52°25' E 004°49'0 0.0
2017-Sep-21 23:30N 52°25' E 004°49'0 0.0
2017-Sep-21 23:00N 52°25' E 004°49'0 0.0
2017-Sep-21 22:30N 52°25' E 004°49'0 0.0
2017-Sep-21 22:00N 52°25' E 004°49'0 0.0
2017-Sep-21 21:30N 52°25' E 004°49'0 0.0
2017-Sep-21 21:00N 52°25' E 004°49'0 0.0
2017-Sep-21 20:30N 52°25' E 004°49'0 0.0
2017-Sep-21 20:00N 52°25' E 004°49'0 0.0
2017-Sep-21 19:30N 52°25' E 004°49'0 0.0
2017-Sep-21 19:00N 52°25' E 004°49'0 0.0
2017-Sep-21 18:30N 52°25' E 004°49'0 0.0
2017-Sep-21 18:00N 52°25' E 004°49'0 0.0
2017-Sep-21 17:30N 52°25' E 004°49'0 0.0
2017-Sep-21 17:00N 52°25' E 004°49'0 0.1
2017-Sep-21 16:31N 52°25' E 004°49'2 4.1
2017-Sep-21 16:01N 52°26' E 004°46'3 6.5
2017-Sep-21 15:30N 52°27' E 004°41'3 5.6
2017-Sep-21 15:00N 52°28' E 004°37'0 0.4
2017-Sep-21 14:30N 52°28' E 004°36'1 1.3
2017-Sep-21 14:01N 52°28' E 004°35'2 4.6
2017-Sep-21 13:31N 52°28' E 004°32'3 7.0
2017-Sep-21 13:00N 52°29' E 004°26'4 8.3
2017-Sep-21 12:30N 52°29' E 004°19'510.2
2017-Sep-21 12:00N 52°29' E 004°11'3 5.9
2017-Sep-21 11:30N 52°27' E 004°07'0 0.2
2017-Sep-21 10:56N 52°27' E 004°06'0 0.0
2017-Sep-21 10:29N 52°27' E 004°06'0 0.0
2017-Sep-21 09:56N 52°27' E 004°06'0 0.0
2017-Sep-21 09:26N 52°27' E 004°06'0 0.1
2017-Sep-21 08:59N 52°27' E 004°06'0 0.1
2017-Sep-21 08:26N 52°27' E 004°06'0 0.3
2017-Sep-21 07:59N 52°27' E 004°07'0 0.3
2017-Sep-21 07:29N 52°28' E 004°07'0 0.1
2017-Sep-21 06:26N 52°28' E 004°07'0 0.0
2017-Sep-21 05:59N 52°28' E 004°07'0 0.0
2017-Sep-21 05:29N 52°28' E 004°07'0 0.0
2017-Sep-21 04:44N 52°28' E 004°07'0 0.0
2017-Sep-21 04:08N 52°28' E 004°07'0 0.0
2017-Sep-21 03:47N 52°28' E 004°07'0 0.0
2017-Sep-21 03:23N 52°28' E 004°07'0 0.1
2017-Sep-21 02:53N 52°28' E 004°07'0 0.0
2017-Sep-21 02:23N 52°28' E 004°07'0 0.1
2017-Sep-21 01:56N 52°28' E 004°07'0 0.0
2017-Sep-21 01:29N 52°28' E 004°07'0 0.1
2017-Sep-21 00:59N 52°28' E 004°07'0 0.3
2017-Sep-21 00:23N 52°27' E 004°07'0 0.1
2017-Sep-20 23:56N 52°27' E 004°06'0 0.1
2017-Sep-20 23:23N 52°27' E 004°06'0 0.0
2017-Sep-20 22:59N 52°27' E 004°06'0 0.1
2017-Sep-20 22:29N 52°27' E 004°06'0 0.0
2017-Sep-20 21:53N 52°27' E 004°06'0 0.0
2017-Sep-20 21:26N 52°27' E 004°06'0 0.0
2017-Sep-20 20:59N 52°27' E 004°06'0 0.0
2017-Sep-20 20:29N 52°27' E 004°06'0 0.1
2017-Sep-20 19:56N 52°27' E 004°06'0 0.2
2017-Sep-20 19:29N 52°27' E 004°07'0 0.3
2017-Sep-20 18:56N 52°27' E 004°07'0 0.2
2017-Sep-20 18:29N 52°28' E 004°07'0 0.1
2017-Sep-20 17:59N 52°28' E 004°07'0 0.1
2017-Sep-20 17:29N 52°28' E 004°07'0 0.0
2017-Sep-20 16:56N 52°28' E 004°07'0 0.0
2017-Sep-20 16:29N 52°28' E 004°07'0 0.0
2017-Sep-20 15:59N 52°28' E 004°07'0 0.1
2017-Sep-20 15:29N 52°28' E 004°07'0 0.0
2017-Sep-20 14:56N 52°28' E 004°07'0 0.1
2017-Sep-20 13:53N 52°28' E 004°07'0 0.1
2017-Sep-20 13:29N 52°28' E 004°07'0 0.3
2017-Sep-20 12:59N 52°27' E 004°07'0 0.3
2017-Sep-20 12:29N 52°27' E 004°06'0 0.1
2017-Sep-20 11:59N 52°27' E 004°06'0 0.0
2017-Sep-20 11:29N 52°27' E 004°06'0 0.0
2017-Sep-20 10:53N 52°27' E 004°06'0 0.0
2017-Sep-20 10:29N 52°27' E 004°06'0 0.0
2017-Sep-20 09:59N 52°27' E 004°06'0 0.0
2017-Sep-20 09:23N 52°27' E 004°06'0 0.0
2017-Sep-20 08:56N 52°27' E 004°06'0 0.0
2017-Sep-20 08:29N 52°27' E 004°06'0 0.0
2017-Sep-20 07:59N 52°27' E 004°06'0 0.0
2017-Sep-20 07:29N 52°27' E 004°06'0 0.1
2017-Sep-20 06:59N 52°27' E 004°06'0 0.2
2017-Sep-20 06:29N 52°27' E 004°07'0 0.2
2017-Sep-20 05:56N 52°27' E 004°07'0 0.2
2017-Sep-20 05:20N 52°28' E 004°07'0 0.0
2017-Sep-20 04:38N 52°28' E 004°07'0 0.0
2017-Sep-20 04:17N 52°28' E 004°07'0 0.0
2017-Sep-20 03:59N 52°28' E 004°07'0 0.0
2017-Sep-20 03:26N 52°28' E 004°07'0 0.0
2017-Sep-20 02:47N 52°28' E 004°06'0 0.1
2017-Sep-20 02:29N 52°28' E 004°07'0 0.0
2017-Sep-20 01:59N 52°28' E 004°07'0 0.0
2017-Sep-20 01:29N 52°28' E 004°07'0 0.2
2017-Sep-20 00:59N 52°27' E 004°07'0 0.2
2017-Sep-20 00:29N 52°27' E 004°07'0 0.3
2017-Sep-19 23:59N 52°27' E 004°06'0 0.1
2017-Sep-19 23:26N 52°27' E 004°06'0 0.0
2017-Sep-19 22:59N 52°27' E 004°06'0 0.0
2017-Sep-19 22:29N 52°27' E 004°06'0 0.0
2017-Sep-19 21:59N 52°27' E 004°06'0 0.0
2017-Sep-19 21:29N 52°27' E 004°06'0 0.0
2017-Sep-19 20:59N 52°27' E 004°06'0 0.1
2017-Sep-19 20:29N 52°27' E 004°06'0 0.4
2017-Sep-19 20:01N 52°27' E 004°07'1 2.4
2017-Sep-19 19:31N 52°28' E 004°09'4 7.1
2017-Sep-19 19:01N 52°31' E 004°08'611.6
2017-Sep-19 18:31N 52°37' E 004°04'611.5
2017-Sep-19 18:00N 52°42' E 004°00'612.0
2017-Sep-19 17:31N 52°48' E 003°59'611.2
2017-Sep-19 17:00N 52°54' E 003°59'710.6
2017-Sep-19 16:19N 52°60' E 004°05'411.0
2017-Sep-19 15:58N 53°03' E 004°10'35311.3
2017-Sep-18 08:41N 57°46' E 010°21'311.3
2017-Sep-18 08:27N 57°47' E 010°26'611.5
2017-Sep-18 07:58N 57°47' E 010°36'510.8
2017-Sep-18 07:30N 57°48' E 010°46'5 8.2
2017-Sep-18 06:55N 57°44' E 010°53'510.7
2017-Sep-18 06:29N 57°41' E 010°59'611.9
2017-Sep-18 06:00N 57°37' E 011°07'611.4
2017-Sep-18 05:30N 57°34' E 011°15'611.3
2017-Sep-18 05:00N 57°30' E 011°22'611.0
2017-Sep-18 04:30N 57°25' E 011°28'611.7
2017-Sep-18 04:01N 57°20' E 011°32'611.4
2017-Sep-18 03:30N 57°14' E 011°36'611.5
2017-Sep-18 02:57N 57°08' E 011°39'1511.7
2017-Sep-18 01:42N 56°54' E 011°48'1011.3
2017-Sep-18 00:49N 56°45' E 011°53'8810.5
2017-Sep-17 16:24N 55°21' E 011°02'512.1
2017-Sep-17 16:00N 55°16' E 011°04'510.2
2017-Sep-17 15:30N 55°11' E 011°04'611.2
2017-Sep-17 15:01N 55°06' E 010°59'611.5
2017-Sep-17 14:31N 55°01' E 010°59'611.1
2017-Sep-17 14:01N 54°56' E 010°53'611.5
2017-Sep-17 13:31N 54°51' E 010°50'611.2
2017-Sep-17 13:01N 54°45' E 010°48'5 9.9
2017-Sep-17 12:30N 54°40' E 010°48'510.3
2017-Sep-17 12:01N 54°38' E 010°55'611.6
2017-Sep-17 11:31N 54°36' E 011°05'611.9
2017-Sep-17 11:00N 54°35' E 011°15'612.7
2017-Sep-17 10:31N 54°32' E 011°25'612.0
2017-Sep-17 10:01N 54°29' E 011°34'611.6
2017-Sep-17 09:31N 54°27' E 011°43'611.7
2017-Sep-17 09:00N 54°26' E 011°54'611.7
2017-Sep-17 08:31N 54°26' E 012°03'8 9.9
2017-Sep-17 07:43N 54°31' E 012°14'211.6
2017-Sep-17 07:31N 54°34' E 012°16'611.1
2017-Sep-17 07:01N 54°38' E 012°21'2910.8
2017-Sep-17 04:20N 54°52' E 013°05'411.6
2017-Sep-17 04:00N 54°53' E 013°11'1911.7
2017-Sep-17 02:24N 54°60' E 013°42'512.0
2017-Sep-17 01:57N 55°01' E 013°51'511.8
2017-Sep-17 01:30N 55°03' E 013°60'611.1
2017-Sep-17 00:59N 55°06' E 014°08'611.7
2017-Sep-17 00:31N 55°11' E 014°13'611.8
2017-Sep-17 00:01N 55°15' E 014°20'611.9
2017-Sep-16 23:31N 55°20' E 014°27'611.7
2017-Sep-16 23:00N 55°25' E 014°33'611.6
2017-Sep-16 22:31N 55°28' E 014°41'611.9
2017-Sep-16 22:00N 55°31' E 014°51'612.0
2017-Sep-16 21:31N 55°34' E 014°60'612.0
2017-Sep-16 21:00N 55°36' E 015°09'611.8
2017-Sep-16 20:31N 55°39' E 015°19'611.9
2017-Sep-16 20:01N 55°41' E 015°29'612.0
2017-Sep-16 19:31N 55°42' E 015°39'611.9
2017-Sep-16 19:01N 55°43' E 015°50'611.7
2017-Sep-16 18:30N 55°44' E 015°60'611.9
2017-Sep-16 18:01N 55°46' E 016°10'611.8
2017-Sep-16 17:30N 55°48' E 016°20'611.8
2017-Sep-16 17:01N 55°49' E 016°30'611.7
2017-Sep-16 16:29N 55°50' E 016°41'30110.6
2017-Sep-15 12:03N 59°34' E 022°58'211.4
2017-Sep-15 11:53N 59°35' E 023°01'411.5
2017-Sep-15 11:30N 59°36' E 023°09'611.2
2017-Sep-15 11:00N 59°38' E 023°20'611.1
2017-Sep-15 10:31N 59°39' E 023°31'611.5
2017-Sep-15 10:01N 59°41' E 023°42'611.6
2017-Sep-15 09:31N 59°42' E 023°53'611.8
2017-Sep-15 09:01N 59°44' E 024°04'811.8
2017-Sep-15 08:23N 59°46' E 024°18'411.6
2017-Sep-15 08:00N 59°47' E 024°26'611.3
2017-Sep-15 07:30N 59°49' E 024°37'611.4
2017-Sep-15 07:00N 59°50' E 024°48'4311.6
2017-Sep-15 03:18N 59°59' E 026°12'311.0
2017-Sep-15 03:00N 59°59' E 026°18'511.0
2017-Sep-15 02:30N 60°01' E 026°29'510.3
2017-Sep-15 02:01N 60°01' E 026°39'510.5
2017-Sep-15 01:30N 60°00' E 026°50'510.4
2017-Sep-15 01:00N 59°59' E 026°60'5 9.8
2017-Sep-15 00:30N 60°01' E 027°09'510.5
2017-Sep-15 00:00N 60°04' E 027°18'510.7
2017-Sep-14 23:30N 60°07' E 027°27'510.7
2017-Sep-14 23:00N 60°09' E 027°36'510.5
2017-Sep-14 22:30N 60°12' E 027°45'510.5
2017-Sep-14 22:00N 60°11' E 027°56'510.9
2017-Sep-14 21:30N 60°09' E 028°06'510.6
2017-Sep-14 21:00N 60°08' E 028°16'611.1
2017-Sep-14 20:30N 60°05' E 028°26'510.1
2017-Sep-14 20:00N 60°03' E 028°35'4 7.8
2017-Sep-14 19:31N 59°59' E 028°36'4 8.0
2017-Sep-14 19:01N 59°55' E 028°34'4 7.9
2017-Sep-14 18:31N 59°52' E 028°29'510.6
2017-Sep-14 18:01N 59°47' E 028°25'4 8.4
2017-Sep-14 17:31N 59°43' E 028°25'2 3.3
2017-Sep-14 17:01N 59°41' E 028°25'0 0.5
2017-Sep-14 16:31N 59°41' E 028°25'0 0.0
2017-Sep-14 15:59N 59°41' E 028°25'0 0.0
2017-Sep-14 15:29N 59°41' E 028°25'0 0.0
2017-Sep-14 14:59N 59°41' E 028°25'0 0.0
2017-Sep-14 14:29N 59°41' E 028°25'0 0.0
2017-Sep-14 13:59N 59°41' E 028°25'0 0.0
2017-Sep-14 13:29N 59°41' E 028°25'0 0.0
2017-Sep-14 12:59N 59°41' E 028°25'0 0.0
2017-Sep-14 12:29N 59°41' E 028°25'0 0.0
2017-Sep-14 11:59N 59°41' E 028°25'0 0.0
2017-Sep-14 11:29N 59°41' E 028°25'0 0.0
2017-Sep-14 10:50N 59°41' E 028°25'0 0.0
2017-Sep-14 10:29N 59°41' E 028°25'0 0.0
2017-Sep-14 09:50N 59°41' E 028°25'0 0.0
2017-Sep-14 09:23N 59°41' E 028°25'0 0.0
2017-Sep-14 08:53N 59°41' E 028°25'0 0.0
2017-Sep-14 08:23N 59°41' E 028°25'0 0.0
2017-Sep-14 07:47N 59°41' E 028°25'0 0.0
2017-Sep-14 07:23N 59°41' E 028°25'0 0.0
2017-Sep-14 06:53N 59°41' E 028°25'  

Dump ship's entire track history